Terminal Aerodrome Forecast
Issued by NWS

Home | Current Version | Previous Version | Text Only | Print | Product List | Glossary On
Versions: 1 2 3 4 5 6 7 8 9 10 11 12 13 14 15 16 17
000
FTUS46 KSGX 201720
TAFCRQ
TAF
KCRQ 201720Z 2018/2118 VRB06KT P6SM BKN020
     FM201900 VRB06KT P6SM SCT025
     FM202000 24009KT P6SM SCT025
     FM210100 VRB05KT P6SM OVC015
     FM211700 VRB05KT P6SM BKN020=

USA.gov is the U.S. government's official web portal to all federal, state and local government web resources and services.